Terminal Aerodrome Forecast
Issued by NWS Pocatello, ID

Home | Current Version | Previous Version | Text Only | Print | Product List | Glossary On
Versions: 1 2 3 4 5 6 7 8 9 10 11 12 13 14 15 16 17 18 19 20 21
000
FTUS45 KPIH 280303 AAA
TAFIDA
TAF AMD
KIDA 280303Z 2803/2824 02007KT P6SM VCSH BKN070 BKN200
      TEMPO 2803/2805 VRB15G30KT P6SM -SHRA OVC060
     FM280600 18007KT P6SM VCSH BKN080 BKN200
     FM281500 23007KT P6SM -SHRA SCT025 BKN100
     FM281800 26007KT P6SM VCTS SCT025CB BKN060 BKN100=

USA.gov is the U.S. government's official web portal to all federal, state and local government web resources and services.